sensor_id;sensor_type;location;lat;lon;timestamp;P1;durP1;ratioP1;P2;durP2;ratioP2
41887;SDS011;63122;52.424;13.458;2022-09-09T00:01:20;10.05;;;7.70;;
41887;SDS011;63122;52.424;13.458;2022-09-09T00:04:10;11.32;;;7.05;;
41887;SDS011;63122;52.424;13.458;2022-09-09T00:06:50;11.75;;;7.50;;
41887;SDS011;63122;52.424;13.458;2022-09-09T00:09:32;9.80;;;7.55;;
41887;SDS011;63122;52.424;13.458;2022-09-09T00:12:12;9.25;;;7.25;;
41887;SDS011;63122;52.424;13.458;2022-09-09T00:14:50;8.68;;;7.47;;
41887;SDS011;63122;52.424;13.458;2022-09-09T00:17:30;7.53;;;6.70;;
41887;SDS011;63122;52.424;13.458;2022-09-09T00:20:11;7.80;;;6.65;;
41887;SDS011;63122;52.424;13.458;2022-09-09T00:22:50;7.22;;;6.20;;
41887;SDS011;63122;52.424;13.458;2022-09-09T00:25:31;9.80;;;6.03;;
41887;SDS011;63122;52.424;13.458;2022-09-09T00:28:20;7.38;;;6.68;;
41887;SDS011;63122;52.424;13.458;2022-09-09T00:31:04;9.48;;;7.20;;
41887;SDS011;63122;52.424;13.458;2022-09-09T00:33:43;11.45;;;6.90;;
41887;SDS011;63122;52.424;13.458;2022-09-09T00:36:26;9.45;;;7.15;;
41887;SDS011;63122;52.424;13.458;2022-09-09T00:38:59;12.20;;;6.95;;
41887;SDS011;63122;52.424;13.458;2022-09-09T00:41:35;12.65;;;6.20;;
41887;SDS011;63122;52.424;13.458;2022-09-09T00:44:23;7.78;;;6.30;;
41887;SDS011;63122;52.424;13.458;2022-09-09T00:47:08;7.03;;;6.07;;
41887;SDS011;63122;52.424;13.458;2022-09-09T00:49:58;6.72;;;6.13;;
41887;SDS011;63122;52.424;13.458;2022-09-09T00:52:36;6.93;;;6.22;;
41887;SDS011;63122;52.424;13.458;2022-09-09T00:55:21;9.93;;;5.97;;
41887;SDS011;63122;52.424;13.458;2022-09-09T00:57:59;7.53;;;6.28;;
41887;SDS011;63122;52.424;13.458;2022-09-09T01:00:35;9.20;;;7.07;;
41887;SDS011;63122;52.424;13.458;2022-09-09T01:03:20;13.82;;;9.75;;
41887;SDS011;63122;52.424;13.458;2022-09-09T01:06:00;19.55;;;10.35;;
41887;SDS011;63122;52.424;13.458;2022-09-09T01:08:49;15.77;;;12.65;;
41887;SDS011;63122;52.424;13.458;2022-09-09T01:11:37;33.03;;;12.13;;
41887;SDS011;63122;52.424;13.458;2022-09-09T01:14:22;8.45;;;7.50;;
41887;SDS011;63122;52.424;13.458;2022-09-09T01:17:02;18.02;;;8.07;;
41887;SDS011;63122;52.424;13.458;2022-09-09T01:19:44;9.63;;;7.32;;
41887;SDS011;63122;52.424;13.458;2022-09-09T01:22:26;10.55;;;7.57;;
41887;SDS011;63122;52.424;13.458;2022-09-09T01:25:13;7.93;;;7.13;;
41887;SDS011;63122;52.424;13.458;2022-09-09T01:27:55;10.05;;;7.20;;
41887;SDS011;63122;52.424;13.458;2022-09-09T01:30:28;8.57;;;6.97;;
41887;SDS011;63122;52.424;13.458;2022-09-09T01:32:58;9.00;;;7.72;;
41887;SDS011;63122;52.424;13.458;2022-09-09T01:35:32;8.18;;;7.25;;
41887;SDS011;63122;52.424;13.458;2022-09-09T01:38:07;8.45;;;7.20;;
41887;SDS011;63122;52.424;13.458;2022-09-09T01:40:38;9.63;;;7.50;;
41887;SDS011;63122;52.424;13.458;2022-09-09T01:43:12;8.57;;;7.63;;
41887;SDS011;63122;52.424;13.458;2022-09-09T01:45:44;9.27;;;8.07;;
41887;SDS011;63122;52.424;13.458;2022-09-09T01:48:18;8.25;;;7.22;;
41887;SDS011;63122;52.424;13.458;2022-09-09T01:50:50;12.82;;;7.00;;
41887;SDS011;63122;52.424;13.458;2022-09-09T01:53:21;11.25;;;7.32;;
41887;SDS011;63122;52.424;13.458;2022-09-09T01:55:55;9.88;;;7.32;;
41887;SDS011;63122;52.424;13.458;2022-09-09T01:58:42;14.00;;;8.10;;
41887;SDS011;63122;52.424;13.458;2022-09-09T02:01:24;8.48;;;7.53;;
41887;SDS011;63122;52.424;13.458;2022-09-09T02:04:05;12.32;;;7.13;;
41887;SDS011;63122;52.424;13.458;2022-09-09T02:06:45;7.32;;;6.50;;
41887;SDS011;63122;52.424;13.458;2022-09-09T02:09:18;9.45;;;6.70;;
41887;SDS011;63122;52.424;13.458;2022-09-09T02:11:53;7.75;;;5.97;;
41887;SDS011;63122;52.424;13.458;2022-09-09T02:14:35;7.25;;;6.45;;
41887;SDS011;63122;52.424;13.458;2022-09-09T02:17:11;7.55;;;6.35;;
41887;SDS011;63122;52.424;13.458;2022-09-09T02:19:45;7.32;;;6.38;;
41887;SDS011;63122;52.424;13.458;2022-09-09T02:22:25;7.05;;;6.20;;
41887;SDS011;63122;52.424;13.458;2022-09-09T02:25:13;8.32;;;6.75;;
41887;SDS011;63122;52.424;13.458;2022-09-09T02:27:46;6.95;;;6.30;;
41887;SDS011;63122;52.424;13.458;2022-09-09T02:30:21;12.00;;;6.63;;
41887;SDS011;63122;52.424;13.458;2022-09-09T02:32:53;7.30;;;6.18;;
41887;SDS011;63122;52.424;13.458;2022-09-09T02:35:30;10.52;;;7.28;;
41887;SDS011;63122;52.424;13.458;2022-09-09T02:38:07;7.47;;;5.72;;
41887;SDS011;63122;52.424;13.458;2022-09-09T02:40:47;7.15;;;5.95;;
41887;SDS011;63122;52.424;13.458;2022-09-09T02:43:19;8.35;;;6.63;;
41887;SDS011;63122;52.424;13.458;2022-09-09T02:45:54;9.88;;;6.80;;
41887;SDS011;63122;52.424;13.458;2022-09-09T02:48:33;10.85;;;6.38;;
41887;SDS011;63122;52.424;13.458;2022-09-09T02:51:14;8.73;;;5.85;;
41887;SDS011;63122;52.424;13.458;2022-09-09T02:53:55;9.13;;;6.75;;
41887;SDS011;63122;52.424;13.458;2022-09-09T02:56:36;9.75;;;6.68;;
41887;SDS011;63122;52.424;13.458;2022-09-09T02:59:13;7.25;;;6.47;;
41887;SDS011;63122;52.424;13.458;2022-09-09T03:01:46;9.98;;;6.80;;
41887;SDS011;63122;52.424;13.458;2022-09-09T03:04:16;9.90;;;6.60;;
41887;SDS011;63122;52.424;13.458;2022-09-09T03:06:49;7.40;;;6.35;;
41887;SDS011;63122;52.424;13.458;2022-09-09T03:09:19;9.65;;;6.50;;
41887;SDS011;63122;52.424;13.458;2022-09-09T03:11:49;12.45;;;7.15;;
41887;SDS011;63122;52.424;13.458;2022-09-09T03:14:19;9.88;;;7.15;;
41887;SDS011;63122;52.424;13.458;2022-09-09T03:16:54;8.13;;;6.70;;
41887;SDS011;63122;52.424;13.458;2022-09-09T03:19:24;7.68;;;6.20;;
41887;SDS011;63122;52.424;13.458;2022-09-09T03:21:54;8.07;;;6.57;;
41887;SDS011;63122;52.424;13.458;2022-09-09T03:24:25;9.97;;;7.10;;
41887;SDS011;63122;52.424;13.458;2022-09-09T03:26:55;9.00;;;6.63;;
41887;SDS011;63122;52.424;13.458;2022-09-09T03:29:25;7.05;;;6.00;;
41887;SDS011;63122;52.424;13.458;2022-09-09T03:31:58;9.80;;;6.30;;
41887;SDS011;63122;52.424;13.458;2022-09-09T03:34:28;9.38;;;6.13;;
41887;SDS011;63122;52.424;13.458;2022-09-09T03:36:58;8.20;;;6.30;;
41887;SDS011;63122;52.424;13.458;2022-09-09T03:39:28;7.63;;;6.30;;
41887;SDS011;63122;52.424;13.458;2022-09-09T03:41:58;9.63;;;5.87;;
41887;SDS011;63122;52.424;13.458;2022-09-09T03:44:30;8.20;;;5.90;;
41887;SDS011;63122;52.424;13.458;2022-09-09T03:47:03;6.32;;;5.57;;
41887;SDS011;63122;52.424;13.458;2022-09-09T03:49:33;6.82;;;6.13;;
41887;SDS011;63122;52.424;13.458;2022-09-09T03:52:03;6.65;;;5.80;;
41887;SDS011;63122;52.424;13.458;2022-09-09T03:54:33;9.37;;;5.83;;
41887;SDS011;63122;52.424;13.458;2022-09-09T03:57:03;6.00;;;5.40;;
41887;SDS011;63122;52.424;13.458;2022-09-09T03:59:34;10.83;;;5.07;;
41887;SDS011;63122;52.424;13.458;2022-09-09T04:02:07;7.47;;;5.13;;
41887;SDS011;63122;52.424;13.458;2022-09-09T04:04:37;8.13;;;5.67;;
41887;SDS011;63122;52.424;13.458;2022-09-09T04:07:07;9.50;;;4.97;;
41887;SDS011;63122;52.424;13.458;2022-09-09T04:09:38;11.13;;;5.50;;
41887;SDS011;63122;52.424;13.458;2022-09-09T04:12:08;6.97;;;5.10;;
41887;SDS011;63122;52.424;13.458;2022-09-09T04:14:40;11.77;;;5.47;;
41887;SDS011;63122;52.424;13.458;2022-09-09T04:17:12;11.77;;;5.40;;
41887;SDS011;63122;52.424;13.458;2022-09-09T04:19:42;7.97;;;5.23;;
41887;SDS011;63122;52.424;13.458;2022-09-09T04:22:13;12.23;;;5.87;;
41887;SDS011;63122;52.424;13.458;2022-09-09T04:24:43;9.25;;;5.15;;
41887;SDS011;63122;52.424;13.458;2022-09-09T04:27:14;6.03;;;4.90;;
41887;SDS011;63122;52.424;13.458;2022-09-09T04:29:44;7.03;;;5.33;;
41887;SDS011;63122;52.424;13.458;2022-09-09T04:32:17;8.33;;;5.50;;
41887;SDS011;63122;52.424;13.458;2022-09-09T04:34:48;11.93;;;5.53;;
41887;SDS011;63122;52.424;13.458;2022-09-09T04:37:18;6.47;;;5.13;;
41887;SDS011;63122;52.424;13.458;2022-09-09T04:39:48;6.43;;;5.33;;
41887;SDS011;63122;52.424;13.458;2022-09-09T04:42:18;11.33;;;5.50;;
41887;SDS011;63122;52.424;13.458;2022-09-09T04:44:48;7.37;;;4.77;;
41887;SDS011;63122;52.424;13.458;2022-09-09T04:47:21;8.17;;;4.97;;
41887;SDS011;63122;52.424;13.458;2022-09-09T04:49:51;10.00;;;4.50;;
41887;SDS011;63122;52.424;13.458;2022-09-09T04:52:22;14.20;;;4.90;;
41887;SDS011;63122;52.424;13.458;2022-09-09T04:54:52;7.33;;;4.83;;
41887;SDS011;63122;52.424;13.458;2022-09-09T04:57:23;6.63;;;5.10;;
41887;SDS011;63122;52.424;13.458;2022-09-09T04:59:54;10.53;;;4.70;;
41887;SDS011;63122;52.424;13.458;2022-09-09T05:02:27;6.60;;;4.90;;
41887;SDS011;63122;52.424;13.458;2022-09-09T05:04:57;8.63;;;4.83;;
41887;SDS011;63122;52.424;13.458;2022-09-09T05:07:27;7.00;;;4.73;;
41887;SDS011;63122;52.424;13.458;2022-09-09T05:09:58;7.50;;;5.00;;
41887;SDS011;63122;52.424;13.458;2022-09-09T05:12:28;9.07;;;4.77;;
41887;SDS011;63122;52.424;13.458;2022-09-09T05:14:58;7.03;;;4.87;;
41887;SDS011;63122;52.424;13.458;2022-09-09T05:17:31;6.77;;;4.57;;
41887;SDS011;63122;52.424;13.458;2022-09-09T05:20:01;5.93;;;4.77;;
41887;SDS011;63122;52.424;13.458;2022-09-09T05:22:36;5.75;;;4.40;;
41887;SDS011;63122;52.424;13.458;2022-09-09T05:25:07;7.07;;;4.60;;
41887;SDS011;63122;52.424;13.458;2022-09-09T05:27:37;7.10;;;4.67;;
41887;SDS011;63122;52.424;13.458;2022-09-09T05:30:08;9.23;;;5.33;;
41887;SDS011;63122;52.424;13.458;2022-09-09T05:32:41;10.60;;;4.80;;
41887;SDS011;63122;52.424;13.458;2022-09-09T05:35:12;9.13;;;4.50;;
41887;SDS011;63122;52.424;13.458;2022-09-09T05:37:42;5.78;;;4.68;;
41887;SDS011;63122;52.424;13.458;2022-09-09T05:40:13;10.73;;;5.00;;
41887;SDS011;63122;52.424;13.458;2022-09-09T05:42:43;10.63;;;5.00;;
41887;SDS011;63122;52.424;13.458;2022-09-09T05:45:13;6.07;;;4.87;;
41887;SDS011;63122;52.424;13.458;2022-09-09T05:47:50;7.00;;;5.47;;
41887;SDS011;63122;52.424;13.458;2022-09-09T05:50:21;10.88;;;5.25;;
41887;SDS011;63122;52.424;13.458;2022-09-09T05:52:57;10.48;;;4.78;;
41887;SDS011;63122;52.424;13.458;2022-09-09T05:55:27;11.77;;;5.28;;
41887;SDS011;63122;52.424;13.458;2022-09-09T05:57:58;12.68;;;5.00;;
41887;SDS011;63122;52.424;13.458;2022-09-09T06:00:28;7.40;;;4.82;;
41887;SDS011;63122;52.424;13.458;2022-09-09T06:03:01;10.20;;;4.50;;
41887;SDS011;63122;52.424;13.458;2022-09-09T06:05:31;7.90;;;4.00;;
41887;SDS011;63122;52.424;13.458;2022-09-09T06:08:02;7.82;;;4.10;;
41887;SDS011;63122;52.424;13.458;2022-09-09T06:10:32;13.18;;;3.92;;
41887;SDS011;63122;52.424;13.458;2022-09-09T06:13:01;5.78;;;3.67;;
41887;SDS011;63122;52.424;13.458;2022-09-09T06:15:32;7.28;;;3.55;;
41887;SDS011;63122;52.424;13.458;2022-09-09T06:18:08;8.80;;;3.55;;
41887;SDS011;63122;52.424;13.458;2022-09-09T06:20:39;7.03;;;3.10;;
41887;SDS011;63122;52.424;13.458;2022-09-09T06:23:09;5.97;;;3.67;;
41887;SDS011;63122;52.424;13.458;2022-09-09T06:25:40;7.15;;;3.65;;
41887;SDS011;63122;52.424;13.458;2022-09-09T06:28:13;8.95;;;3.90;;
41887;SDS011;63122;52.424;13.458;2022-09-09T06:30:58;5.47;;;3.78;;
41887;SDS011;63122;52.424;13.458;2022-09-09T06:33:33;7.15;;;3.35;;
41887;SDS011;63122;52.424;13.458;2022-09-09T06:36:10;17.70;;;3.85;;
41887;SDS011;63122;52.424;13.458;2022-09-09T06:38:41;5.15;;;3.30;;
41887;SDS011;63122;52.424;13.458;2022-09-09T06:41:16;10.57;;;3.75;;
41887;SDS011;63122;52.424;13.458;2022-09-09T06:43:48;5.78;;;3.80;;
41887;SDS011;63122;52.424;13.458;2022-09-09T06:46:19;6.53;;;3.08;;
41887;SDS011;63122;52.424;13.458;2022-09-09T06:48:57;7.55;;;3.10;;
41887;SDS011;63122;52.424;13.458;2022-09-09T06:51:29;4.28;;;2.70;;
41887;SDS011;63122;52.424;13.458;2022-09-09T06:54:01;8.98;;;3.10;;
41887;SDS011;63122;52.424;13.458;2022-09-09T06:56:34;5.88;;;3.08;;
41887;SDS011;63122;52.424;13.458;2022-09-09T06:59:07;11.07;;;3.13;;
41887;SDS011;63122;52.424;13.458;2022-09-09T07:01:40;8.07;;;2.70;;
41887;SDS011;63122;52.424;13.458;2022-09-09T07:04:16;6.65;;;2.75;;
41887;SDS011;63122;52.424;13.458;2022-09-09T07:06:48;6.80;;;2.90;;
41887;SDS011;63122;52.424;13.458;2022-09-09T07:09:20;6.03;;;2.75;;
41887;SDS011;63122;52.424;13.458;2022-09-09T07:11:51;8.85;;;2.70;;
41887;SDS011;63122;52.424;13.458;2022-09-09T07:14:23;5.90;;;2.63;;
41887;SDS011;63122;52.424;13.458;2022-09-09T07:16:54;4.50;;;2.53;;
41887;SDS011;63122;52.424;13.458;2022-09-09T07:19:31;7.78;;;2.60;;
41887;SDS011;63122;52.424;13.458;2022-09-09T07:22:07;5.18;;;2.28;;
41887;SDS011;63122;52.424;13.458;2022-09-09T07:24:37;10.65;;;2.88;;
41887;SDS011;63122;52.424;13.458;2022-09-09T07:27:08;10.15;;;2.65;;
41887;SDS011;63122;52.424;13.458;2022-09-09T07:29:38;9.43;;;2.80;;
41887;SDS011;63122;52.424;13.458;2022-09-09T07:32:08;9.20;;;2.95;;
41887;SDS011;63122;52.424;13.458;2022-09-09T07:34:42;7.65;;;2.28;;
41887;SDS011;63122;52.424;13.458;2022-09-09T07:37:12;6.57;;;2.40;;
41887;SDS011;63122;52.424;13.458;2022-09-09T07:40:08;5.00;;;2.13;;
41887;SDS011;63122;52.424;13.458;2022-09-09T07:42:55;11.13;;;2.70;;
41887;SDS011;63122;52.424;13.458;2022-09-09T07:45:26;15.50;;;2.85;;
41887;SDS011;63122;52.424;13.458;2022-09-09T07:47:57;7.10;;;2.65;;
41887;SDS011;63122;52.424;13.458;2022-09-09T07:50:30;4.25;;;2.17;;
41887;SDS011;63122;52.424;13.458;2022-09-09T07:53:00;5.07;;;1.95;;
41887;SDS011;63122;52.424;13.458;2022-09-09T07:55:32;10.18;;;2.33;;
41887;SDS011;63122;52.424;13.458;2022-09-09T07:58:02;4.10;;;2.00;;
41887;SDS011;63122;52.424;13.458;2022-09-09T08:00:32;4.45;;;1.90;;
41887;SDS011;63122;52.424;13.458;2022-09-09T08:03:03;8.50;;;2.63;;
41887;SDS011;63122;52.424;13.458;2022-09-09T08:05:38;11.30;;;2.65;;
41887;SDS011;63122;52.424;13.458;2022-09-09T08:08:12;7.15;;;2.28;;
41887;SDS011;63122;52.424;13.458;2022-09-09T08:10:43;5.00;;;1.92;;
41887;SDS011;63122;52.424;13.458;2022-09-09T08:13:13;10.48;;;2.72;;
41887;SDS011;63122;52.424;13.458;2022-09-09T08:15:44;7.97;;;2.15;;
41887;SDS011;63122;52.424;13.458;2022-09-09T08:18:17;8.02;;;2.97;;
41887;SDS011;63122;52.424;13.458;2022-09-09T08:20:49;6.75;;;1.92;;
41887;SDS011;63122;52.424;13.458;2022-09-09T08:23:20;6.47;;;2.35;;
41887;SDS011;63122;52.424;13.458;2022-09-09T08:25:50;4.65;;;2.17;;
41887;SDS011;63122;52.424;13.458;2022-09-09T08:28:20;13.00;;;2.50;;
41887;SDS011;63122;52.424;13.458;2022-09-09T08:30:50;9.75;;;2.20;;
41887;SDS011;63122;52.424;13.458;2022-09-09T08:33:20;8.05;;;2.33;;
41887;SDS011;63122;52.424;13.458;2022-09-09T08:35:54;6.28;;;2.28;;
41887;SDS011;63122;52.424;13.458;2022-09-09T08:38:24;4.45;;;1.70;;
41887;SDS011;63122;52.424;13.458;2022-09-09T08:40:57;9.13;;;2.20;;
41887;SDS011;63122;52.424;13.458;2022-09-09T08:43:37;6.38;;;2.00;;
41887;SDS011;63122;52.424;13.458;2022-09-09T08:46:09;9.32;;;2.55;;
41887;SDS011;63122;52.424;13.458;2022-09-09T08:48:52;8.80;;;1.90;;
41887;SDS011;63122;52.424;13.458;2022-09-09T08:51:30;6.07;;;2.20;;
41887;SDS011;63122;52.424;13.458;2022-09-09T08:54:02;5.32;;;2.10;;
41887;SDS011;63122;52.424;13.458;2022-09-09T08:56:36;8.00;;;1.73;;
41887;SDS011;63122;52.424;13.458;2022-09-09T08:59:07;5.28;;;2.00;;
41887;SDS011;63122;52.424;13.458;2022-09-09T09:01:54;8.05;;;2.90;;
41887;SDS011;63122;52.424;13.458;2022-09-09T09:04:45;10.52;;;2.20;;
41887;SDS011;63122;52.424;13.458;2022-09-09T09:07:28;5.18;;;1.92;;
41887;SDS011;63122;52.424;13.458;2022-09-09T09:10:10;6.20;;;1.70;;
41887;SDS011;63122;52.424;13.458;2022-09-09T09:13:07;7.63;;;2.38;;
41887;SDS011;63122;52.424;13.458;2022-09-09T09:15:48;4.97;;;2.30;;
41887;SDS011;63122;52.424;13.458;2022-09-09T09:18:27;5.22;;;1.70;;
41887;SDS011;63122;52.424;13.458;2022-09-09T09:20:59;5.90;;;2.20;;
41887;SDS011;63122;52.424;13.458;2022-09-09T09:23:41;5.68;;;1.92;;
41887;SDS011;63122;52.424;13.458;2022-09-09T09:26:18;9.77;;;2.00;;
41887;SDS011;63122;52.424;13.458;2022-09-09T09:28:51;8.02;;;2.08;;
41887;SDS011;63122;52.424;13.458;2022-09-09T09:31:26;5.55;;;1.83;;
41887;SDS011;63122;52.424;13.458;2022-09-09T09:33:56;15.68;;;2.20;;
41887;SDS011;63122;52.424;13.458;2022-09-09T09:36:32;5.57;;;1.90;;
41887;SDS011;63122;52.424;13.458;2022-09-09T09:39:07;7.68;;;2.30;;
41887;SDS011;63122;52.424;13.458;2022-09-09T09:41:57;6.60;;;1.90;;
41887;SDS011;63122;52.424;13.458;2022-09-09T09:44:32;8.90;;;1.95;;
41887;SDS011;63122;52.424;13.458;2022-09-09T09:47:07;5.20;;;1.50;;
41887;SDS011;63122;52.424;13.458;2022-09-09T09:49:50;9.13;;;1.88;;
41887;SDS011;63122;52.424;13.458;2022-09-09T09:52:36;5.68;;;1.92;;
41887;SDS011;63122;52.424;13.458;2022-09-09T09:55:14;5.28;;;1.73;;
41887;SDS011;63122;52.424;13.458;2022-09-09T09:57:47;4.05;;;1.50;;
41887;SDS011;63122;52.424;13.458;2022-09-09T10:00:18;4.13;;;1.50;;
41887;SDS011;63122;52.424;13.458;2022-09-09T10:02:52;6.63;;;1.77;;
41887;SDS011;63122;52.424;13.458;2022-09-09T10:05:23;5.20;;;2.17;;
41887;SDS011;63122;52.424;13.458;2022-09-09T10:08:02;6.85;;;2.00;;
41887;SDS011;63122;52.424;13.458;2022-09-09T10:10:40;5.05;;;1.70;;
41887;SDS011;63122;52.424;13.458;2022-09-09T10:13:18;7.80;;;1.90;;
41887;SDS011;63122;52.424;13.458;2022-09-09T10:15:59;3.97;;;1.20;;
41887;SDS011;63122;52.424;13.458;2022-09-09T10:18:49;9.55;;;1.92;;
41887;SDS011;63122;52.424;13.458;2022-09-09T10:21:34;6.50;;;2.15;;
41887;SDS011;63122;52.424;13.458;2022-09-09T10:24:22;5.22;;;1.88;;
41887;SDS011;63122;52.424;13.458;2022-09-09T10:27:18;3.72;;;1.80;;
41887;SDS011;63122;52.424;13.458;2022-09-09T10:30:04;8.02;;;1.70;;
41887;SDS011;63122;52.424;13.458;2022-09-09T10:32:41;5.05;;;1.80;;
41887;SDS011;63122;52.424;13.458;2022-09-09T10:35:22;10.02;;;1.92;;
41887;SDS011;63122;52.424;13.458;2022-09-09T10:38:17;6.80;;;1.92;;
41887;SDS011;63122;52.424;13.458;2022-09-09T10:41:00;4.05;;;1.38;;
41887;SDS011;63122;52.424;13.458;2022-09-09T10:43:46;3.83;;;1.45;;
41887;SDS011;63122;52.424;13.458;2022-09-09T10:46:35;5.13;;;1.92;;
41887;SDS011;63122;52.424;13.458;2022-09-09T10:49:24;7.20;;;1.70;;
41887;SDS011;63122;52.424;13.458;2022-09-09T10:52:08;5.18;;;1.65;;
41887;SDS011;63122;52.424;13.458;2022-09-09T10:54:51;4.95;;;1.80;;
41887;SDS011;63122;52.424;13.458;2022-09-09T10:57:28;5.95;;;1.73;;
41887;SDS011;63122;52.424;13.458;2022-09-09T11:00:06;9.05;;;1.50;;
41887;SDS011;63122;52.424;13.458;2022-09-09T11:02:44;6.75;;;1.50;;
41887;SDS011;63122;52.424;13.458;2022-09-09T11:05:20;5.55;;;1.40;;
41887;SDS011;63122;52.424;13.458;2022-09-09T11:07:57;5.80;;;1.73;;
41887;SDS011;63122;52.424;13.458;2022-09-09T11:10:33;7.70;;;1.50;;
41887;SDS011;63122;52.424;13.458;2022-09-09T11:13:10;7.90;;;1.50;;
41887;SDS011;63122;52.424;13.458;2022-09-09T11:15:49;7.03;;;1.40;;
41887;SDS011;63122;52.424;13.458;2022-09-09T11:18:22;4.18;;;1.45;;
41887;SDS011;63122;52.424;13.458;2022-09-09T11:20:53;5.53;;;1.35;;
41887;SDS011;63122;52.424;13.458;2022-09-09T11:23:33;3.60;;;0.98;;
41887;SDS011;63122;52.424;13.458;2022-09-09T11:26:10;6.90;;;1.40;;
41887;SDS011;63122;52.424;13.458;2022-09-09T11:28:52;5.00;;;1.10;;
41887;SDS011;63122;52.424;13.458;2022-09-09T11:31:38;5.40;;;1.50;;
41887;SDS011;63122;52.424;13.458;2022-09-09T11:34:20;8.25;;;1.50;;
41887;SDS011;63122;52.424;13.458;2022-09-09T11:37:06;8.02;;;1.13;;
41887;SDS011;63122;52.424;13.458;2022-09-09T11:39:55;5.82;;;1.50;;
41887;SDS011;63122;52.424;13.458;2022-09-09T11:42:37;6.30;;;1.45;;
41887;SDS011;63122;52.424;13.458;2022-09-09T11:45:10;3.83;;;1.17;;
41887;SDS011;63122;52.424;13.458;2022-09-09T11:47:54;6.35;;;1.20;;
41887;SDS011;63122;52.424;13.458;2022-09-09T11:50:33;5.13;;;1.45;;
41887;SDS011;63122;52.424;13.458;2022-09-09T11:59:19;2.28;;;1.05;;
41887;SDS011;63122;52.424;13.458;2022-09-09T12:02:27;4.68;;;1.08;;
41887;SDS011;63122;52.424;13.458;2022-09-09T12:05:07;5.20;;;1.20;;
41887;SDS011;63122;52.424;13.458;2022-09-09T12:07:40;6.55;;;1.38;;
41887;SDS011;63122;52.424;13.458;2022-09-09T12:10:19;3.38;;;1.10;;
41887;SDS011;63122;52.424;13.458;2022-09-09T12:13:07;3.47;;;1.10;;
41887;SDS011;63122;52.424;13.458;2022-09-09T12:20:02;5.40;;;0.90;;
41887;SDS011;63122;52.424;13.458;2022-09-09T12:23:48;4.28;;;1.30;;
41887;SDS011;63122;52.424;13.458;2022-09-09T12:32:39;10.05;;;1.50;;
41887;SDS011;63122;52.424;13.458;2022-09-09T12:47:17;3.05;;;0.80;;
41887;SDS011;63122;52.424;13.458;2022-09-09T12:49:55;2.50;;;1.02;;
41887;SDS011;63122;52.424;13.458;2022-09-09T12:52:30;5.10;;;1.13;;
41887;SDS011;63122;52.424;13.458;2022-09-09T12:55:15;2.78;;;0.75;;
41887;SDS011;63122;52.424;13.458;2022-09-09T12:57:48;5.70;;;1.23;;
41887;SDS011;63122;52.424;13.458;2022-09-09T13:00:24;3.38;;;1.13;;
41887;SDS011;63122;52.424;13.458;2022-09-09T13:02:55;4.05;;;1.00;;
41887;SDS011;63122;52.424;13.458;2022-09-09T13:05:28;2.58;;;1.02;;
41887;SDS011;63122;52.424;13.458;2022-09-09T13:08:25;3.40;;;1.25;;
41887;SDS011;63122;52.424;13.458;2022-09-09T13:10:57;4.40;;;1.30;;
41887;SDS011;63122;52.424;13.458;2022-09-09T13:13:35;3.75;;;0.98;;
41887;SDS011;63122;52.424;13.458;2022-09-09T13:16:18;5.60;;;1.20;;
41887;SDS011;63122;52.424;13.458;2022-09-09T13:18:50;5.22;;;1.33;;
41887;SDS011;63122;52.424;13.458;2022-09-09T13:21:30;4.10;;;1.23;;
41887;SDS011;63122;52.424;13.458;2022-09-09T13:24:02;6.32;;;1.23;;
41887;SDS011;63122;52.424;13.458;2022-09-09T13:26:36;1.95;;;1.20;;
41887;SDS011;63122;52.424;13.458;2022-09-09T13:29:08;6.97;;;1.20;;
41887;SDS011;63122;52.424;13.458;2022-09-09T13:31:49;5.00;;;1.25;;
41887;SDS011;63122;52.424;13.458;2022-09-09T13:34:27;4.20;;;1.17;;
41887;SDS011;63122;52.424;13.458;2022-09-09T13:36:59;2.97;;;0.93;;
41887;SDS011;63122;52.424;13.458;2022-09-09T13:39:33;13.98;;;1.58;;
41887;SDS011;63122;52.424;13.458;2022-09-09T13:42:05;3.40;;;1.00;;
41887;SDS011;63122;52.424;13.458;2022-09-09T13:44:52;6.13;;;1.60;;
41887;SDS011;63122;52.424;13.458;2022-09-09T13:47:30;5.47;;;1.75;;
41887;SDS011;63122;52.424;13.458;2022-09-09T13:50:10;4.18;;;1.38;;
41887;SDS011;63122;52.424;13.458;2022-09-09T13:52:49;5.07;;;0.95;;
41887;SDS011;63122;52.424;13.458;2022-09-09T13:55:20;4.03;;;0.95;;
41887;SDS011;63122;52.424;13.458;2022-09-09T13:57:52;3.25;;;1.10;;
41887;SDS011;63122;52.424;13.458;2022-09-09T14:00:23;7.90;;;1.30;;
41887;SDS011;63122;52.424;13.458;2022-09-09T14:02:56;12.45;;;1.50;;
41887;SDS011;63122;52.424;13.458;2022-09-09T14:05:30;4.47;;;1.70;;
41887;SDS011;63122;52.424;13.458;2022-09-09T14:08:03;9.20;;;1.67;;
41887;SDS011;63122;52.424;13.458;2022-09-09T14:10:33;4.25;;;1.30;;
41887;SDS011;63122;52.424;13.458;2022-09-09T14:13:12;9.25;;;1.77;;
41887;SDS011;63122;52.424;13.458;2022-09-09T14:19:45;7.75;;;1.55;;
41887;SDS011;63122;52.424;13.458;2022-09-09T14:22:21;6.05;;;1.10;;
41887;SDS011;63122;52.424;13.458;2022-09-09T14:25:04;3.90;;;1.10;;
41887;SDS011;63122;52.424;13.458;2022-09-09T14:27:48;5.90;;;1.60;;
41887;SDS011;63122;52.424;13.458;2022-09-09T14:30:18;5.68;;;1.42;;
41887;SDS011;63122;52.424;13.458;2022-09-09T14:36:25;4.80;;;1.30;;
41887;SDS011;63122;52.424;13.458;2022-09-09T14:39:05;7.85;;;1.40;;
41887;SDS011;63122;52.424;13.458;2022-09-09T14:41:38;5.40;;;1.38;;
41887;SDS011;63122;52.424;13.458;2022-09-09T14:48:41;6.05;;;1.30;;
41887;SDS011;63122;52.424;13.458;2022-09-09T14:51:16;7.47;;;1.50;;
41887;SDS011;63122;52.424;13.458;2022-09-09T14:54:40;5.38;;;1.30;;
41887;SDS011;63122;52.424;13.458;2022-09-09T15:03:22;6.10;;;1.98;;
41887;SDS011;63122;52.424;13.458;2022-09-09T15:06:23;4.03;;;1.48;;
41887;SDS011;63122;52.424;13.458;2022-09-09T15:09:45;4.10;;;1.50;;
41887;SDS011;63122;52.424;13.458;2022-09-09T15:16:39;6.47;;;2.00;;
41887;SDS011;63122;52.424;13.458;2022-09-09T15:19:13;4.55;;;1.95;;
41887;SDS011;63122;52.424;13.458;2022-09-09T15:21:47;5.72;;;1.83;;
41887;SDS011;63122;52.424;13.458;2022-09-09T15:24:46;2.88;;;1.23;;
41887;SDS011;63122;52.424;13.458;2022-09-09T15:27:18;5.28;;;2.40;;
41887;SDS011;63122;52.424;13.458;2022-09-09T15:29:53;3.78;;;1.50;;
41887;SDS011;63122;52.424;13.458;2022-09-09T15:32:33;4.93;;;1.50;;
41887;SDS011;63122;52.424;13.458;2022-09-09T15:38:52;7.07;;;2.20;;
41887;SDS011;63122;52.424;13.458;2022-09-09T15:42:15;11.30;;;3.58;;
41887;SDS011;63122;52.424;13.458;2022-09-09T15:44:57;14.35;;;7.35;;
41887;SDS011;63122;52.424;13.458;2022-09-09T15:47:28;8.18;;;3.42;;
41887;SDS011;63122;52.424;13.458;2022-09-09T15:50:03;6.63;;;2.53;;
41887;SDS011;63122;52.424;13.458;2022-09-09T15:52:37;13.70;;;6.70;;
41887;SDS011;63122;52.424;13.458;2022-09-09T15:55:07;11.48;;;4.40;;
41887;SDS011;63122;52.424;13.458;2022-09-09T15:57:40;4.45;;;2.25;;
41887;SDS011;63122;52.424;13.458;2022-09-09T16:00:11;2.38;;;1.40;;
41887;SDS011;63122;52.424;13.458;2022-09-09T16:02:45;7.88;;;2.10;;
41887;SDS011;63122;52.424;13.458;2022-09-09T16:05:19;5.80;;;2.40;;
41887;SDS011;63122;52.424;13.458;2022-09-09T16:07:49;6.28;;;2.13;;
41887;SDS011;63122;52.424;13.458;2022-09-09T16:10:22;6.25;;;2.08;;
41887;SDS011;63122;52.424;13.458;2022-09-09T16:12:57;5.93;;;1.45;;
41887;SDS011;63122;52.424;13.458;2022-09-09T16:15:28;8.23;;;2.15;;
41887;SDS011;63122;52.424;13.458;2022-09-09T16:18:02;7.10;;;2.08;;
41887;SDS011;63122;52.424;13.458;2022-09-09T16:20:32;7.78;;;3.30;;
41887;SDS011;63122;52.424;13.458;2022-09-09T16:23:09;2.38;;;0.80;;